sensor_id;sensor_type;location;lat;lon;timestamp;P1;durP1;ratioP1;P2;durP2;ratioP2
35803;SDS011;21924;51.934;7.414;2023-12-28T00:02:25;9.10;;;4.22;;
35803;SDS011;21924;51.934;7.414;2023-12-28T00:05:09;5.57;;;3.85;;
35803;SDS011;21924;51.934;7.414;2023-12-28T00:07:53;4.00;;;3.60;;
35803;SDS011;21924;51.934;7.414;2023-12-28T00:10:41;5.43;;;3.42;;
35803;SDS011;21924;51.934;7.414;2023-12-28T00:13:25;4.70;;;3.72;;
35803;SDS011;21924;51.934;7.414;2023-12-28T00:16:09;6.10;;;4.22;;
35803;SDS011;21924;51.934;7.414;2023-12-28T00:18:53;7.32;;;4.90;;
35803;SDS011;21924;51.934;7.414;2023-12-28T00:21:37;6.40;;;4.60;;
35803;SDS011;21924;51.934;7.414;2023-12-28T00:24:21;5.95;;;4.60;;
35803;SDS011;21924;51.934;7.414;2023-12-28T00:27:06;6.88;;;5.00;;
35803;SDS011;21924;51.934;7.414;2023-12-28T00:29:50;6.80;;;4.60;;
35803;SDS011;21924;51.934;7.414;2023-12-28T00:32:34;5.57;;;4.70;;
35803;SDS011;21924;51.934;7.414;2023-12-28T00:35:18;7.88;;;5.57;;
35803;SDS011;21924;51.934;7.414;2023-12-28T00:38:02;7.53;;;4.13;;
35803;SDS011;21924;51.934;7.414;2023-12-28T00:40:46;10.43;;;4.60;;
35803;SDS011;21924;51.934;7.414;2023-12-28T00:43:30;8.63;;;4.88;;
35803;SDS011;21924;51.934;7.414;2023-12-28T00:46:14;7.63;;;4.85;;
35803;SDS011;21924;51.934;7.414;2023-12-28T00:48:58;7.28;;;4.00;;
35803;SDS011;21924;51.934;7.414;2023-12-28T00:51:42;8.75;;;5.07;;
35803;SDS011;21924;51.934;7.414;2023-12-28T00:54:27;8.73;;;5.05;;
35803;SDS011;21924;51.934;7.414;2023-12-28T00:57:11;7.88;;;5.35;;
35803;SDS011;21924;51.934;7.414;2023-12-28T00:59:55;8.80;;;5.93;;
35803;SDS011;21924;51.934;7.414;2023-12-28T01:02:39;11.90;;;5.35;;
35803;SDS011;21924;51.934;7.414;2023-12-28T01:05:23;7.80;;;4.85;;
35803;SDS011;21924;51.934;7.414;2023-12-28T01:08:09;10.85;;;4.68;;
35803;SDS011;21924;51.934;7.414;2023-12-28T01:10:53;9.45;;;4.60;;
35803;SDS011;21924;51.934;7.414;2023-12-28T01:13:37;7.50;;;4.45;;
35803;SDS011;21924;51.934;7.414;2023-12-28T01:16:22;8.57;;;5.00;;
35803;SDS011;21924;51.934;7.414;2023-12-28T01:19:06;10.82;;;5.60;;
35803;SDS011;21924;51.934;7.414;2023-12-28T01:21:50;7.35;;;5.13;;
35803;SDS011;21924;51.934;7.414;2023-12-28T01:24:34;10.27;;;5.00;;
35803;SDS011;21924;51.934;7.414;2023-12-28T01:27:18;8.70;;;5.05;;
35803;SDS011;21924;51.934;7.414;2023-12-28T01:30:02;5.47;;;4.88;;
35803;SDS011;21924;51.934;7.414;2023-12-28T01:32:47;7.63;;;5.18;;
35803;SDS011;21924;51.934;7.414;2023-12-28T01:35:31;7.18;;;4.78;;
35803;SDS011;21924;51.934;7.414;2023-12-28T01:38:15;9.75;;;5.00;;
35803;SDS011;21924;51.934;7.414;2023-12-28T01:41:02;9.55;;;5.45;;
35803;SDS011;21924;51.934;7.414;2023-12-28T01:43:46;9.55;;;5.30;;
35803;SDS011;21924;51.934;7.414;2023-12-28T01:46:30;8.50;;;5.07;;
35803;SDS011;21924;51.934;7.414;2023-12-28T01:49:15;8.75;;;5.03;;
35803;SDS011;21924;51.934;7.414;2023-12-28T01:52:00;6.53;;;4.93;;
35803;SDS011;21924;51.934;7.414;2023-12-28T01:57:31;8.07;;;4.85;;
35803;SDS011;21924;51.934;7.414;2023-12-28T02:00:15;10.45;;;5.38;;
35803;SDS011;21924;51.934;7.414;2023-12-28T02:02:59;5.28;;;4.70;;
35803;SDS011;21924;51.934;7.414;2023-12-28T02:05:44;8.65;;;5.53;;
35803;SDS011;21924;51.934;7.414;2023-12-28T02:08:30;7.55;;;5.13;;
35803;SDS011;21924;51.934;7.414;2023-12-28T02:11:14;7.53;;;5.35;;
35803;SDS011;21924;51.934;7.414;2023-12-28T02:13:58;15.73;;;5.78;;
35803;SDS011;21924;51.934;7.414;2023-12-28T02:16:44;7.63;;;5.65;;
35803;SDS011;21924;51.934;7.414;2023-12-28T02:22:49;5.95;;;4.20;;
35803;SDS011;21924;51.934;7.414;2023-12-28T02:25:34;6.95;;;4.20;;
35803;SDS011;21924;51.934;7.414;2023-12-28T02:28:18;9.82;;;4.70;;
35803;SDS011;21924;51.934;7.414;2023-12-28T02:31:03;6.88;;;5.20;;
35803;SDS011;21924;51.934;7.414;2023-12-28T02:33:54;7.07;;;5.22;;
35803;SDS011;21924;51.934;7.414;2023-12-28T02:36:48;6.63;;;5.18;;
35803;SDS011;21924;51.934;7.414;2023-12-28T02:39:33;6.78;;;5.47;;
35803;SDS011;21924;51.934;7.414;2023-12-28T02:42:20;7.72;;;4.95;;
35803;SDS011;21924;51.934;7.414;2023-12-28T02:45:04;5.70;;;4.60;;
35803;SDS011;21924;51.934;7.414;2023-12-28T02:47:49;9.02;;;4.60;;
35803;SDS011;21924;51.934;7.414;2023-12-28T02:50:34;7.30;;;5.10;;
35803;SDS011;21924;51.934;7.414;2023-12-28T02:53:19;9.93;;;4.90;;
35803;SDS011;21924;51.934;7.414;2023-12-28T02:56:03;7.40;;;5.20;;
35803;SDS011;21924;51.934;7.414;2023-12-28T02:58:48;8.25;;;4.82;;
35803;SDS011;21924;51.934;7.414;2023-12-28T03:01:32;7.57;;;4.97;;
35803;SDS011;21924;51.934;7.414;2023-12-28T03:04:16;8.02;;;5.15;;
35803;SDS011;21924;51.934;7.414;2023-12-28T03:07:00;9.00;;;5.30;;
35803;SDS011;21924;51.934;7.414;2023-12-28T03:17:10;6.43;;;5.20;;
35803;SDS011;21924;51.934;7.414;2023-12-28T03:51:27;10.15;;;6.00;;
35803;SDS011;21924;51.934;7.414;2023-12-28T03:54:23;8.98;;;5.57;;
35803;SDS011;21924;51.934;7.414;2023-12-28T04:04:30;6.22;;;5.25;;
35803;SDS011;21924;51.934;7.414;2023-12-28T04:11:04;9.25;;;5.13;;
35803;SDS011;21924;51.934;7.414;2023-12-28T04:35:15;6.82;;;5.30;;
35803;SDS011;21924;51.934;7.414;2023-12-28T04:49:22;5.47;;;4.22;;
35803;SDS011;21924;51.934;7.414;2023-12-28T04:52:07;9.05;;;4.50;;
35803;SDS011;21924;51.934;7.414;2023-12-28T04:54:51;9.50;;;4.40;;
35803;SDS011;21924;51.934;7.414;2023-12-28T05:05:31;12.93;;;4.65;;
35803;SDS011;21924;51.934;7.414;2023-12-28T05:25:46;11.85;;;4.85;;
35803;SDS011;21924;51.934;7.414;2023-12-28T05:28:37;4.35;;;3.35;;
35803;SDS011;21924;51.934;7.414;2023-12-28T05:38:15;8.63;;;3.72;;
35803;SDS011;21924;51.934;7.414;2023-12-28T06:27:29;7.97;;;3.88;;
35803;SDS011;21924;51.934;7.414;2023-12-28T06:55:05;12.55;;;3.55;;
35803;SDS011;21924;51.934;7.414;2023-12-28T07:14:39;19.05;;;3.72;;
35803;SDS011;21924;51.934;7.414;2023-12-28T07:17:30;7.55;;;3.70;;
35803;SDS011;21924;51.934;7.414;2023-12-28T07:38:40;14.23;;;4.05;;
35803;SDS011;21924;51.934;7.414;2023-12-28T07:41:24;15.82;;;3.40;;
35803;SDS011;21924;51.934;7.414;2023-12-28T07:44:09;5.45;;;3.83;;
35803;SDS011;21924;51.934;7.414;2023-12-28T07:46:53;5.43;;;3.28;;
35803;SDS011;21924;51.934;7.414;2023-12-28T07:49:37;8.32;;;3.92;;
35803;SDS011;21924;51.934;7.414;2023-12-28T07:52:21;9.00;;;3.78;;
35803;SDS011;21924;51.934;7.414;2023-12-28T07:55:05;6.90;;;2.90;;
35803;SDS011;21924;51.934;7.414;2023-12-28T07:57:50;7.45;;;3.45;;
35803;SDS011;21924;51.934;7.414;2023-12-28T08:00:34;6.70;;;3.25;;
35803;SDS011;21924;51.934;7.414;2023-12-28T08:03:18;12.02;;;4.00;;
35803;SDS011;21924;51.934;7.414;2023-12-28T08:06:03;8.70;;;3.45;;
35803;SDS011;21924;51.934;7.414;2023-12-28T08:08:47;8.55;;;3.45;;
35803;SDS011;21924;51.934;7.414;2023-12-28T08:11:32;10.95;;;3.17;;
35803;SDS011;21924;51.934;7.414;2023-12-28T08:14:16;7.07;;;2.88;;
35803;SDS011;21924;51.934;7.414;2023-12-28T08:17:00;10.30;;;3.83;;
35803;SDS011;21924;51.934;7.414;2023-12-28T08:19:45;12.57;;;3.38;;
35803;SDS011;21924;51.934;7.414;2023-12-28T08:22:29;12.73;;;3.67;;
35803;SDS011;21924;51.934;7.414;2023-12-28T08:25:13;7.63;;;3.90;;
35803;SDS011;21924;51.934;7.414;2023-12-28T08:27:57;8.60;;;3.88;;
35803;SDS011;21924;51.934;7.414;2023-12-28T08:30:41;13.48;;;4.40;;
35803;SDS011;21924;51.934;7.414;2023-12-28T08:33:26;15.32;;;3.78;;
35803;SDS011;21924;51.934;7.414;2023-12-28T08:36:10;11.70;;;3.28;;
35803;SDS011;21924;51.934;7.414;2023-12-28T08:38:55;10.15;;;3.25;;
35803;SDS011;21924;51.934;7.414;2023-12-28T08:41:40;8.15;;;3.10;;
35803;SDS011;21924;51.934;7.414;2023-12-28T08:44:25;7.10;;;3.40;;
35803;SDS011;21924;51.934;7.414;2023-12-28T08:47:09;10.88;;;3.38;;
35803;SDS011;21924;51.934;7.414;2023-12-28T08:49:53;11.40;;;3.60;;
35803;SDS011;21924;51.934;7.414;2023-12-28T08:52:36;13.65;;;3.33;;
35803;SDS011;21924;51.934;7.414;2023-12-28T08:55:21;12.15;;;3.88;;
35803;SDS011;21924;51.934;7.414;2023-12-28T08:58:05;8.77;;;3.15;;
35803;SDS011;21924;51.934;7.414;2023-12-28T09:00:49;9.98;;;4.20;;
35803;SDS011;21924;51.934;7.414;2023-12-28T09:03:33;8.70;;;3.92;;
35803;SDS011;21924;51.934;7.414;2023-12-28T09:06:18;14.80;;;3.22;;
35803;SDS011;21924;51.934;7.414;2023-12-28T09:09:03;15.23;;;3.53;;
35803;SDS011;21924;51.934;7.414;2023-12-28T09:11:47;18.20;;;4.10;;
35803;SDS011;21924;51.934;7.414;2023-12-28T09:14:31;15.90;;;3.15;;
35803;SDS011;21924;51.934;7.414;2023-12-28T09:17:16;16.55;;;3.95;;
35803;SDS011;21924;51.934;7.414;2023-12-28T09:20:00;10.32;;;3.67;;
35803;SDS011;21924;51.934;7.414;2023-12-28T09:22:47;8.93;;;3.17;;
35803;SDS011;21924;51.934;7.414;2023-12-28T09:25:34;8.07;;;3.72;;
35803;SDS011;21924;51.934;7.414;2023-12-28T09:28:18;27.98;;;4.43;;
35803;SDS011;21924;51.934;7.414;2023-12-28T09:31:02;11.90;;;3.17;;
35803;SDS011;21924;51.934;7.414;2023-12-28T09:33:47;10.02;;;3.65;;
35803;SDS011;21924;51.934;7.414;2023-12-28T09:36:31;9.80;;;2.83;;
35803;SDS011;21924;51.934;7.414;2023-12-28T09:39:16;13.00;;;3.67;;
35803;SDS011;21924;51.934;7.414;2023-12-28T09:49:16;11.38;;;3.30;;
35803;SDS011;21924;51.934;7.414;2023-12-28T09:52:01;12.68;;;3.83;;
35803;SDS011;21924;51.934;7.414;2023-12-28T09:54:46;12.80;;;3.45;;
35803;SDS011;21924;51.934;7.414;2023-12-28T10:04:52;23.92;;;3.75;;
35803;SDS011;21924;51.934;7.414;2023-12-28T10:07:39;10.20;;;3.25;;
35803;SDS011;21924;51.934;7.414;2023-12-28T10:10:26;21.27;;;3.75;;
35803;SDS011;21924;51.934;7.414;2023-12-28T10:13:10;19.80;;;2.95;;
35803;SDS011;21924;51.934;7.414;2023-12-28T10:15:57;12.15;;;3.28;;
35803;SDS011;21924;51.934;7.414;2023-12-28T10:18:42;8.60;;;3.17;;
35803;SDS011;21924;51.934;7.414;2023-12-28T10:21:27;9.40;;;3.40;;
35803;SDS011;21924;51.934;7.414;2023-12-28T10:24:12;14.38;;;3.22;;
35803;SDS011;21924;51.934;7.414;2023-12-28T10:26:56;11.02;;;3.63;;
35803;SDS011;21924;51.934;7.414;2023-12-28T10:29:40;11.75;;;3.30;;
35803;SDS011;21924;51.934;7.414;2023-12-28T10:32:26;16.17;;;3.42;;
35803;SDS011;21924;51.934;7.414;2023-12-28T10:35:10;8.80;;;3.28;;
35803;SDS011;21924;51.934;7.414;2023-12-28T10:37:55;7.68;;;3.53;;
35803;SDS011;21924;51.934;7.414;2023-12-28T10:40:46;14.45;;;2.80;;
35803;SDS011;21924;51.934;7.414;2023-12-28T10:43:35;12.18;;;2.97;;
35803;SDS011;21924;51.934;7.414;2023-12-28T10:46:31;6.70;;;2.95;;
35803;SDS011;21924;51.934;7.414;2023-12-28T10:49:16;16.45;;;3.28;;
35803;SDS011;21924;51.934;7.414;2023-12-28T10:52:03;16.45;;;2.97;;
35803;SDS011;21924;51.934;7.414;2023-12-28T10:54:54;13.40;;;3.30;;
35803;SDS011;21924;51.934;7.414;2023-12-28T10:58:08;22.23;;;4.18;;
35803;SDS011;21924;51.934;7.414;2023-12-28T11:00:58;12.85;;;3.85;;
35803;SDS011;21924;51.934;7.414;2023-12-28T11:03:46;10.20;;;2.97;;
35803;SDS011;21924;51.934;7.414;2023-12-28T11:06:35;16.90;;;3.45;;
35803;SDS011;21924;51.934;7.414;2023-12-28T11:09:21;9.40;;;2.55;;
35803;SDS011;21924;51.934;7.414;2023-12-28T11:12:08;12.32;;;3.85;;
35803;SDS011;21924;51.934;7.414;2023-12-28T11:14:56;17.33;;;3.28;;
35803;SDS011;21924;51.934;7.414;2023-12-28T11:17:41;17.42;;;3.53;;
35803;SDS011;21924;51.934;7.414;2023-12-28T11:20:25;9.60;;;2.75;;
35803;SDS011;21924;51.934;7.414;2023-12-28T11:23:11;6.45;;;2.70;;
35803;SDS011;21924;51.934;7.414;2023-12-28T11:25:56;11.30;;;3.65;;
35803;SDS011;21924;51.934;7.414;2023-12-28T11:28:40;7.28;;;2.50;;
35803;SDS011;21924;51.934;7.414;2023-12-28T11:31:25;15.98;;;3.00;;
35803;SDS011;21924;51.934;7.414;2023-12-28T11:34:10;15.43;;;2.97;;
35803;SDS011;21924;51.934;7.414;2023-12-28T11:37:04;19.35;;;3.60;;
35803;SDS011;21924;51.934;7.414;2023-12-28T11:39:51;12.25;;;3.92;;
35803;SDS011;21924;51.934;7.414;2023-12-28T11:42:35;11.57;;;3.15;;
35803;SDS011;21924;51.934;7.414;2023-12-28T11:45:20;4.97;;;2.78;;
35803;SDS011;21924;51.934;7.414;2023-12-28T11:48:05;14.57;;;3.35;;
35803;SDS011;21924;51.934;7.414;2023-12-28T11:50:50;12.55;;;3.28;;
35803;SDS011;21924;51.934;7.414;2023-12-28T11:53:37;6.13;;;2.42;;
35803;SDS011;21924;51.934;7.414;2023-12-28T11:56:24;11.73;;;2.90;;
35803;SDS011;21924;51.934;7.414;2023-12-28T11:59:10;13.88;;;3.00;;
35803;SDS011;21924;51.934;7.414;2023-12-28T12:01:54;13.20;;;3.47;;
35803;SDS011;21924;51.934;7.414;2023-12-28T12:04:38;11.15;;;2.80;;
35803;SDS011;21924;51.934;7.414;2023-12-28T12:07:23;21.10;;;3.00;;
35803;SDS011;21924;51.934;7.414;2023-12-28T12:10:13;12.25;;;3.28;;
35803;SDS011;21924;51.934;7.414;2023-12-28T12:12:58;13.90;;;2.75;;
35803;SDS011;21924;51.934;7.414;2023-12-28T12:15:43;13.13;;;2.60;;
35803;SDS011;21924;51.934;7.414;2023-12-28T12:18:27;8.20;;;2.70;;
35803;SDS011;21924;51.934;7.414;2023-12-28T12:21:13;9.57;;;2.58;;
35803;SDS011;21924;51.934;7.414;2023-12-28T12:23:56;13.60;;;2.90;;
35803;SDS011;21924;51.934;7.414;2023-12-28T12:26:41;21.08;;;3.28;;
35803;SDS011;21924;51.934;7.414;2023-12-28T12:29:25;8.13;;;2.45;;
35803;SDS011;21924;51.934;7.414;2023-12-28T12:32:09;13.63;;;3.13;;
35803;SDS011;21924;51.934;7.414;2023-12-28T12:34:54;12.18;;;3.50;;
35803;SDS011;21924;51.934;7.414;2023-12-28T12:37:39;14.73;;;3.55;;
35803;SDS011;21924;51.934;7.414;2023-12-28T12:40:24;15.60;;;3.47;;
35803;SDS011;21924;51.934;7.414;2023-12-28T12:43:09;22.00;;;3.13;;
35803;SDS011;21924;51.934;7.414;2023-12-28T12:45:53;17.23;;;3.13;;
35803;SDS011;21924;51.934;7.414;2023-12-28T12:48:37;13.27;;;3.35;;
35803;SDS011;21924;51.934;7.414;2023-12-28T12:51:22;8.98;;;3.50;;
35803;SDS011;21924;51.934;7.414;2023-12-28T12:54:07;12.73;;;3.50;;
35803;SDS011;21924;51.934;7.414;2023-12-28T12:56:52;17.42;;;3.35;;
35803;SDS011;21924;51.934;7.414;2023-12-28T12:59:38;8.55;;;3.17;;
35803;SDS011;21924;51.934;7.414;2023-12-28T13:02:24;9.27;;;2.80;;
35803;SDS011;21924;51.934;7.414;2023-12-28T13:05:11;10.13;;;2.40;;
35803;SDS011;21924;51.934;7.414;2023-12-28T13:07:55;16.73;;;3.22;;
35803;SDS011;21924;51.934;7.414;2023-12-28T13:10:39;14.90;;;2.50;;
35803;SDS011;21924;51.934;7.414;2023-12-28T13:13:24;11.98;;;2.70;;
35803;SDS011;21924;51.934;7.414;2023-12-28T13:16:08;12.10;;;3.22;;
35803;SDS011;21924;51.934;7.414;2023-12-28T13:18:52;7.47;;;2.92;;
35803;SDS011;21924;51.934;7.414;2023-12-28T13:25:02;7.68;;;2.58;;
35803;SDS011;21924;51.934;7.414;2023-12-28T13:28:00;9.38;;;3.08;;
35803;SDS011;21924;51.934;7.414;2023-12-28T13:30:59;5.93;;;2.58;;
35803;SDS011;21924;51.934;7.414;2023-12-28T13:34:03;10.32;;;2.38;;
35803;SDS011;21924;51.934;7.414;2023-12-28T13:36:56;9.90;;;2.92;;
35803;SDS011;21924;51.934;7.414;2023-12-28T13:40:01;10.63;;;2.83;;
35803;SDS011;21924;51.934;7.414;2023-12-28T13:43:01;24.98;;;3.38;;
35803;SDS011;21924;51.934;7.414;2023-12-28T13:45:48;12.02;;;2.88;;
35803;SDS011;21924;51.934;7.414;2023-12-28T13:55:58;11.77;;;3.13;;
35803;SDS011;21924;51.934;7.414;2023-12-28T13:59:00;13.23;;;4.07;;
35803;SDS011;21924;51.934;7.414;2023-12-28T14:02:03;13.70;;;3.22;;
35803;SDS011;21924;51.934;7.414;2023-12-28T14:05:03;11.30;;;3.60;;
35803;SDS011;21924;51.934;7.414;2023-12-28T14:07:47;18.98;;;3.38;;
35803;SDS011;21924;51.934;7.414;2023-12-28T14:11:02;12.20;;;3.40;;
35803;SDS011;21924;51.934;7.414;2023-12-28T14:14:02;14.90;;;3.40;;
35803;SDS011;21924;51.934;7.414;2023-12-28T14:17:02;10.88;;;3.03;;
35803;SDS011;21924;51.934;7.414;2023-12-28T14:30:02;14.43;;;3.65;;
35803;SDS011;21924;51.934;7.414;2023-12-28T14:33:02;16.35;;;3.38;;
35803;SDS011;21924;51.934;7.414;2023-12-28T14:36:02;13.30;;;3.13;;
35803;SDS011;21924;51.934;7.414;2023-12-28T14:47:04;14.52;;;3.75;;
35803;SDS011;21924;51.934;7.414;2023-12-28T14:50:04;16.35;;;3.90;;
35803;SDS011;21924;51.934;7.414;2023-12-28T14:52:55;10.80;;;3.63;;
35803;SDS011;21924;51.934;7.414;2023-12-28T15:35:12;11.82;;;2.95;;
35803;SDS011;21924;51.934;7.414;2023-12-28T15:45:45;11.75;;;3.35;;
35803;SDS011;21924;51.934;7.414;2023-12-28T15:51:54;11.75;;;3.20;;
35803;SDS011;21924;51.934;7.414;2023-12-28T16:02:03;9.00;;;2.97;;
35803;SDS011;21924;51.934;7.414;2023-12-28T16:12:22;13.07;;;3.30;;
35803;SDS011;21924;51.934;7.414;2023-12-28T16:22:41;10.07;;;2.75;;
35803;SDS011;21924;51.934;7.414;2023-12-28T16:25:32;17.58;;;3.15;;
35803;SDS011;21924;51.934;7.414;2023-12-28T16:28:36;12.27;;;3.50;;
35803;SDS011;21924;51.934;7.414;2023-12-28T16:41:48;9.85;;;3.38;;
35803;SDS011;21924;51.934;7.414;2023-12-28T16:44:52;8.25;;;3.13;;
35803;SDS011;21924;51.934;7.414;2023-12-28T16:50:54;6.70;;;2.97;;
35803;SDS011;21924;51.934;7.414;2023-12-28T16:53:46;14.45;;;3.42;;
35803;SDS011;21924;51.934;7.414;2023-12-28T17:00:12;12.23;;;3.00;;
35803;SDS011;21924;51.934;7.414;2023-12-28T17:02:56;9.60;;;3.70;;
35803;SDS011;21924;51.934;7.414;2023-12-28T17:05:40;11.20;;;3.58;;
35803;SDS011;21924;51.934;7.414;2023-12-28T17:08:26;12.38;;;3.33;;
35803;SDS011;21924;51.934;7.414;2023-12-28T17:11:11;9.15;;;2.63;;
35803;SDS011;21924;51.934;7.414;2023-12-28T17:14:24;16.55;;;3.25;;
35803;SDS011;21924;51.934;7.414;2023-12-28T17:17:20;8.07;;;3.03;;
35803;SDS011;21924;51.934;7.414;2023-12-28T17:57:17;9.82;;;2.90;;
35803;SDS011;21924;51.934;7.414;2023-12-28T18:04:31;6.55;;;3.17;;
35803;SDS011;21924;51.934;7.414;2023-12-28T18:12:00;10.30;;;3.03;;
35803;SDS011;21924;51.934;7.414;2023-12-28T18:21:46;7.15;;;3.08;;
35803;SDS011;21924;51.934;7.414;2023-12-28T18:24:37;13.25;;;3.15;;
35803;SDS011;21924;51.934;7.414;2023-12-28T18:27:21;15.02;;;3.47;;
35803;SDS011;21924;51.934;7.414;2023-12-28T18:30:06;15.65;;;3.38;;
35803;SDS011;21924;51.934;7.414;2023-12-28T18:32:51;11.25;;;3.78;;
35803;SDS011;21924;51.934;7.414;2023-12-28T18:35:35;8.10;;;3.20;;
35803;SDS011;21924;51.934;7.414;2023-12-28T18:38:20;7.95;;;3.60;;
35803;SDS011;21924;51.934;7.414;2023-12-28T18:41:04;8.07;;;2.75;;
35803;SDS011;21924;51.934;7.414;2023-12-28T18:43:49;10.43;;;3.08;;
35803;SDS011;21924;51.934;7.414;2023-12-28T18:50:16;13.60;;;3.20;;
35803;SDS011;21924;51.934;7.414;2023-12-28T19:03:30;15.48;;;4.03;;
35803;SDS011;21924;51.934;7.414;2023-12-28T19:39:35;7.07;;;2.95;;
35803;SDS011;21924;51.934;7.414;2023-12-28T19:46:19;12.73;;;3.42;;
35803;SDS011;21924;51.934;7.414;2023-12-28T20:00:00;12.18;;;3.22;;
35803;SDS011;21924;51.934;7.414;2023-12-28T20:17:35;12.05;;;3.15;;
35803;SDS011;21924;51.934;7.414;2023-12-28T20:34:43;9.30;;;3.13;;
35803;SDS011;21924;51.934;7.414;2023-12-28T21:14:31;4.97;;;2.75;;
35803;SDS011;21924;51.934;7.414;2023-12-28T21:27:53;8.70;;;3.20;;
35803;SDS011;21924;51.934;7.414;2023-12-28T21:30:37;10.73;;;3.75;;
35803;SDS011;21924;51.934;7.414;2023-12-28T21:33:21;17.25;;;3.70;;
35803;SDS011;21924;51.934;7.414;2023-12-28T21:36:05;8.48;;;3.53;;
35803;SDS011;21924;51.934;7.414;2023-12-28T21:38:53;8.55;;;3.88;;
35803;SDS011;21924;51.934;7.414;2023-12-28T21:42:00;10.07;;;3.38;;
35803;SDS011;21924;51.934;7.414;2023-12-28T21:44:52;9.15;;;3.38;;
35803;SDS011;21924;51.934;7.414;2023-12-28T21:47:36;8.35;;;3.25;;
35803;SDS011;21924;51.934;7.414;2023-12-28T21:50:30;11.52;;;3.92;;
35803;SDS011;21924;51.934;7.414;2023-12-28T21:53:18;7.72;;;3.08;;
35803;SDS011;21924;51.934;7.414;2023-12-28T21:56:05;9.57;;;3.30;;
35803;SDS011;21924;51.934;7.414;2023-12-28T21:58:56;9.40;;;3.30;;
35803;SDS011;21924;51.934;7.414;2023-12-28T22:01:41;10.52;;;3.40;;
35803;SDS011;21924;51.934;7.414;2023-12-28T22:07:36;6.72;;;2.90;;
35803;SDS011;21924;51.934;7.414;2023-12-28T22:10:29;6.75;;;2.95;;
35803;SDS011;21924;51.934;7.414;2023-12-28T22:13:16;5.07;;;3.58;;
35803;SDS011;21924;51.934;7.414;2023-12-28T22:16:00;10.40;;;4.15;;
35803;SDS011;21924;51.934;7.414;2023-12-28T22:18:44;6.70;;;3.42;;
35803;SDS011;21924;51.934;7.414;2023-12-28T22:21:30;10.85;;;3.47;;
35803;SDS011;21924;51.934;7.414;2023-12-28T22:24:14;11.20;;;4.20;;
35803;SDS011;21924;51.934;7.414;2023-12-28T22:26:59;8.13;;;2.90;;
35803;SDS011;21924;51.934;7.414;2023-12-28T22:59:25;15.50;;;2.95;;
35803;SDS011;21924;51.934;7.414;2023-12-28T23:02:09;4.45;;;2.60;;
35803;SDS011;21924;51.934;7.414;2023-12-28T23:04:56;7.70;;;2.85;;
35803;SDS011;21924;51.934;7.414;2023-12-28T23:07:40;6.95;;;3.92;;
35803;SDS011;21924;51.934;7.414;2023-12-28T23:10:25;10.55;;;3.70;;
35803;SDS011;21924;51.934;7.414;2023-12-28T23:13:12;4.03;;;2.47;;
35803;SDS011;21924;51.934;7.414;2023-12-28T23:15:57;9.98;;;3.67;;
35803;SDS011;21924;51.934;7.414;2023-12-28T23:18:41;8.68;;;3.28;;
35803;SDS011;21924;51.934;7.414;2023-12-28T23:21:26;7.75;;;4.20;;
35803;SDS011;21924;51.934;7.414;2023-12-28T23:24:10;11.82;;;4.25;;
35803;SDS011;21924;51.934;7.414;2023-12-28T23:26:54;6.78;;;3.10;;
35803;SDS011;21924;51.934;7.414;2023-12-28T23:29:38;6.47;;;3.63;;
35803;SDS011;21924;51.934;7.414;2023-12-28T23:32:23;14.10;;;4.32;;
35803;SDS011;21924;51.934;7.414;2023-12-28T23:35:07;7.28;;;3.67;;
35803;SDS011;21924;51.934;7.414;2023-12-28T23:37:52;8.18;;;2.95;;
35803;SDS011;21924;51.934;7.414;2023-12-28T23:40:36;11.15;;;3.92;;
35803;SDS011;21924;51.934;7.414;2023-12-28T23:43:20;8.45;;;2.72;;
35803;SDS011;21924;51.934;7.414;2023-12-28T23:46:04;12.90;;;3.70;;
35803;SDS011;21924;51.934;7.414;2023-12-28T23:48:49;9.65;;;2.88;;
35803;SDS011;21924;51.934;7.414;2023-12-28T23:51:33;9.88;;;3.28;;
35803;SDS011;21924;51.934;7.414;2023-12-28T23:54:17;8.48;;;3.30;;
35803;SDS011;21924;51.934;7.414;2023-12-28T23:57:01;11.88;;;3.47;;
35803;SDS011;21924;51.934;7.414;2023-12-28T23:59:47;9.15;;;3.83;;
